| time (UTC) | temp C | wind direction | speed KPH | gust KPH | rain 1hr cm | rain 24hr cm | rain mn cm | humidity % | barometer mb |
| 20260906211416 | 9 | 144 | 0.0 | 0.0 | 0.00 | 0.00 | 0.00 | 93 | 1028.3 |
| 20260906205902 | 8 | 144 | 0.0 | 1.6 | 0.00 | 0.00 | 0.00 | 93 | 1028.2 |
| 20260906204358 | 4 | 92 | 0.0 | 0.0 | 0.00 | 0.00 | 0.00 | 94 | 1028.3 |
| 20260906201406 | 3 | 92 | 0.0 | 0.0 | 0.00 | 0.00 | 0.00 | 93 | 1027.8 |
| 20260906195900 | 3 | 92 | 0.0 | 0.0 | 0.00 | 0.00 | 0.00 | 92 | 1027.7 |
| 20260906192908 | 4 | 92 | 0.0 | 0.0 | 0.00 | 0.00 | 0.00 | 88 | 1027.4 |
| 20260906191357 | 5 | 92 | 0.0 | 0.0 | 0.00 | 0.00 | 0.00 | 86 | 1027.2 |
| 20260906184409 | 7 | 92 | 0.0 | 0.0 | 0.00 | 0.00 | 0.00 | 84 | 1026.7 |
| 20260906182859 | 8 | 92 | 0.0 | 0.0 | 0.00 | 0.00 | 0.00 | 83 | 1026.5 |
| 20260906175905 | 11 | 92 | 0.0 | 0.0 | 0.00 | 0.00 | 0.00 | 87 | 1026.0 |
| 20260906174402 | 13 | 92 | 0.0 | 3.2 | 0.00 | 0.00 | 0.00 | 86 | 1026.0 |
| 20260906172854 | 13 | 113 | 1.6 | 4.8 | 0.00 | 0.00 | 0.00 | 87 | 1025.9 |
| 20260906165901 | 15 | 74 | 0.0 | 6.4 | 0.00 | 0.00 | 0.00 | 85 | 1025.8 |
| 20260906164356 | 15 | 57 | 1.6 | 8.0 | 0.00 | 0.00 | 0.00 | 84 | 1025.6 |
| 20260906161404 | 15 | 103 | 0.0 | 3.2 | 0.00 | 0.00 | 0.00 | 84 | 1025.4 |
| 20260906155858 | 15 | 65 | 0.0 | 1.6 | 0.00 | 0.00 | 0.00 | 81 | 1025.4 |
| 20260906152907 | 16 | 75 | 3.2 | 11.3 | 0.00 | 0.00 | 0.00 | 79 | 1025.3 |
| 20260906151401 | 17 | 10 | 3.2 | 11.3 | 0.00 | 0.00 | 0.00 | 78 | 1025.2 |
| 20260906144408 | 17 | 36 | 0.0 | 9.7 | 0.00 | 0.00 | 0.00 | 76 | 1025.3 |
| 20260906142858 | 17 | 76 | 3.2 | 12.9 | 0.00 | 0.00 | 0.00 | 78 | 1025.5 |
| 20260906132907 | 17 | 59 | 1.6 | 11.3 | 0.00 | 0.00 | 0.00 | 78 | 1025.4 |
| 20260906131404 | 17 | 33 | 0.0 | 6.4 | 0.00 | 0.00 | 0.00 | 79 | 1025.3 |
| 20260906125858 | 17 | 77 | 1.6 | 9.7 | 0.00 | 0.00 | 0.00 | 76 | 1025.3 |
| 20260906124352 | 17 | 254 | 1.6 | 9.7 | 0.00 | 0.00 | 0.00 | 78 | 1025.2 |
| 20260906121402 | 17 | 113 | 1.6 | 11.3 | 0.00 | 0.00 | 0.00 | 81 | 1025.2 |
| 20260906115857 | 16 | 317 | 0.0 | 11.3 | 0.00 | 0.00 | 0.00 | 83 | 1025.0 |
| 20260906114351 | 16 | 355 | 0.0 | 11.3 | 0.00 | 0.00 | 0.00 | 83 | 1025.0 |
| 20260906111401 | 16 | 41 | 3.2 | 11.3 | 0.00 | 0.00 | 0.00 | 85 | 1024.9 |
| 20260906105856 | 16 | 51 | 0.0 | 11.3 | 0.00 | 0.00 | 0.00 | 85 | 1025.0 |
| 20260906102905 | 17 | 105 | 1.6 | 14.5 | 0.00 | 0.00 | 0.00 | 84 | 1024.8 |
| 20260906101356 | 17 | 139 | 3.2 | 11.3 | 0.00 | 0.00 | 0.00 | 83 | 1024.9 |
| 20260906095851 | 17 | 17 | 4.8 | 11.3 | 0.00 | 0.00 | 0.00 | 84 | 1024.9 |
| 20260906092906 | 15 | 101 | 0.0 | 8.0 | 0.00 | 0.00 | 0.00 | 87 | 1025.1 |
| 20260906091400 | 16 | 34 | 0.0 | 8.0 | 0.00 | 0.00 | 0.00 | 86 | 1024.8 |
| 20260906084407 | 16 | 350 | 0.0 | 8.0 | 0.00 | 0.00 | 0.00 | 85 | 1024.8 |
| 20260906082859 | 16 | 160 | 0.0 | 8.0 | 0.00 | 0.00 | 0.00 | 83 | 1024.9 |
| 20260906075904 | 16 | 263 | 0.0 | 6.4 | 0.00 | 0.00 | 0.00 | 87 | 1024.6 |
| 20260906074356 | 15 | 201 | 0.0 | 9.7 | 0.00 | 0.00 | 0.00 | 89 | 1024.6 |
| 20260906071358 | 14 | 94 | 0.0 | 6.4 | 0.00 | 0.00 | 0.00 | 93 | 1024.5 |
| 20260906065856 | 14 | 348 | 0.0 | 8.0 | 0.00 | 0.00 | 0.00 | 93 | 1024.5 |
| 20260906062901 | 12 | 44 | 4.8 | 11.3 | 0.00 | 0.00 | 0.00 | 93 | 1024.4 |
| 20260906061358 | 11 | 28 | 3.2 | 8.0 | 0.00 | 0.00 | 0.00 | 93 | 1024.3 |
| 20260906054403 | 1 | 223 | 0.0 | 0.0 | 0.00 | 0.00 | 0.00 | 92 | 1024.0 |
| 20260906052853 | 2 | 223 | 0.0 | 0.0 | 0.00 | 0.00 | 0.00 | 89 | 1023.8 |
| 20260906045901 | 3 | 223 | 0.0 | 0.0 | 0.00 | 0.00 | 0.00 | 86 | 1023.3 |
| 20260906042905 | 5 | 223 | 0.0 | 0.0 | 0.00 | 0.00 | 0.00 | 83 | 1023.0 |
| 20260906041359 | 6 | 223 | 0.0 | 0.0 | 0.00 | 0.00 | 0.00 | 81 | 1022.9 |
| 20260906034410 | 10 | 223 | 0.0 | 0.0 | 0.00 | 0.00 | 0.00 | 77 | 1022.6 |
| 20260906032854 | 12 | 223 | 0.0 | 0.0 | 0.00 | 0.00 | 0.00 | 74 | 1022.6 |
| 20260906025902 | 13 | 208 | 3.2 | 8.0 | 0.00 | 0.00 | 0.00 | 70 | 1022.6 |
| 20260906022908 | 14 | 211 | 4.8 | 9.7 | 0.00 | 0.00 | 0.00 | 67 | 1022.8 |
| 20260906021401 | 14 | 235 | 1.6 | 9.7 | 0.00 | 0.00 | 0.00 | 67 | 1022.9 |
| 20260906014840 | 14 | 235 | 1.6 | 9.7 | 0.00 | 0.00 | 0.00 | 67 | 1022.7 |
| 20260906011326 | 14 | 218 | 3.2 | 9.7 | 0.00 | 0.00 | 0.00 | 66 | 1022.7 |
| 20260906004323 | 15 | 223 | 0.0 | 9.7 | 0.00 | 0.00 | 0.00 | 68 | 1022.8 |
| 20260906002815 | 15 | 261 | 3.2 | 9.7 | 0.00 | 0.00 | 0.00 | 68 | 1022.9 |
| 20260905235820 | 15 | 244 | 3.2 | 11.3 | 0.00 | 0.00 | 0.00 | 68 | 1023.0 |
| 20260905232822 | 11 | 251 | 0.0 | 6.4 | 0.00 | 0.00 | 0.00 | 86 | 1023.0 |
| 20260905231316 | 8 | 214 | 0.0 | 3.2 | 0.00 | 0.00 | 0.00 | 93 | 1023.0 |
| 20260905224328 | 8 | 114 | 0.0 | 0.0 | 0.00 | 0.00 | 0.00 | 91 | 1022.9 |
| 20260905222807 | 9 | 114 | 0.0 | 0.0 | 0.00 | 0.00 | 0.00 | 86 | 1022.9 |
| 20260905215827 | 12 | 114 | 0.0 | 0.0 | 0.00 | 0.00 | 0.00 | 76 | 1022.7 |
| 20260905212826 | 16 | 208 | 0.0 | 6.4 | 0.00 | 0.00 | 0.00 | 67 | 1022.7 |